createdAt,value
2022-08-20T00:02:19.445Z,22.87
2022-08-20T00:04:51.147Z,22.89
2022-08-20T00:07:22.773Z,22.88
2022-08-20T00:09:54.471Z,22.87
2022-08-20T00:12:26.076Z,22.86
2022-08-20T00:14:57.880Z,22.86
2022-08-20T00:17:32.851Z,22.88
2022-08-20T00:20:08.240Z,22.88
2022-08-20T00:22:39.972Z,22.89
2022-08-20T00:25:13.779Z,22.91
2022-08-20T00:27:45.536Z,22.93
2022-08-20T00:30:20.926Z,22.96
2022-08-20T00:32:54.818Z,22.98
2022-08-20T00:35:30.841Z,23.01
2022-08-20T00:38:02.790Z,23.03
2022-08-20T00:40:38.564Z,23.06
2022-08-20T00:43:29.033Z,23.09
2022-08-20T00:45:59.605Z,23.11
2022-08-20T00:48:33.637Z,23.10
2022-08-20T00:51:15.233Z,23.11
2022-08-20T00:53:48.107Z,23.11
2022-08-20T00:56:19.796Z,23.12
2022-08-20T00:58:53.672Z,23.16
2022-08-20T01:01:25.473Z,23.17
2022-08-20T01:03:58.317Z,23.18
2022-08-20T01:06:30.006Z,23.15
2022-08-20T01:09:02.291Z,23.15
2022-08-20T01:11:37.108Z,23.14
2022-08-20T01:14:31.955Z,23.18
2022-08-20T01:17:07.779Z,23.21
2022-08-20T01:19:43.070Z,23.24
2022-08-20T01:22:36.356Z,23.26
2022-08-20T01:25:13.927Z,23.26
2022-08-20T01:27:46.689Z,23.25
2022-08-20T01:30:24.498Z,23.24
2022-08-20T01:32:56.299Z,23.22
2022-08-20T01:35:29.409Z,23.21
2022-08-20T01:38:01.250Z,23.21
2022-08-20T01:40:50.308Z,23.21
2022-08-20T01:43:23.750Z,23.17
2022-08-20T01:45:56.021Z,23.14
2022-08-20T01:48:28.484Z,23.13
2022-08-20T01:51:04.945Z,23.12
2022-08-20T01:53:39.583Z,23.09
2022-08-20T01:56:15.336Z,23.05
2022-08-20T01:58:54.848Z,23.03
2022-08-20T02:01:46.912Z,23.00
2022-08-20T02:04:19.180Z,22.98
2022-08-20T02:06:56.638Z,22.94
2022-08-20T02:09:32.279Z,22.93
2022-08-20T02:12:06.007Z,22.94
2022-08-20T02:14:40.962Z,22.93
2022-08-20T02:17:14.320Z,22.95
2022-08-20T02:19:50.133Z,22.96
2022-08-20T02:22:25.693Z,22.94
2022-08-20T02:24:57.547Z,22.91
2022-08-20T02:27:29.247Z,22.87
2022-08-20T02:30:00.909Z,22.84
2022-08-20T02:32:34.321Z,22.82
2022-08-20T02:35:08.658Z,22.84
2022-08-20T02:37:41.618Z,22.84
2022-08-20T02:40:19.093Z,22.82
2022-08-20T02:43:03.258Z,22.82
2022-08-20T02:45:37.467Z,22.83
2022-08-20T02:48:09.227Z,22.85
2022-08-20T02:50:44.016Z,22.84
2022-08-20T02:53:15.899Z,22.81
2022-08-20T02:55:47.965Z,22.82
2022-08-20T02:58:20.851Z,22.81
2022-08-20T03:00:53.207Z,22.82
2022-08-20T03:03:25.285Z,22.81
2022-08-20T03:05:59.059Z,22.83
2022-08-20T03:08:31.419Z,22.82
2022-08-20T03:11:03.352Z,22.79
2022-08-20T03:13:35.442Z,22.75
2022-08-20T03:16:08.828Z,22.72
2022-08-20T03:18:42.438Z,22.70
2022-08-20T03:21:15.003Z,22.70
2022-08-20T03:23:46.730Z,22.72
2022-08-20T03:26:18.516Z,22.73
2022-08-20T03:28:50.218Z,22.71
2022-08-20T03:31:22.043Z,22.68
2022-08-20T03:33:53.976Z,22.67
2022-08-20T03:36:28.330Z,22.66
2022-08-20T03:39:02.447Z,22.64
2022-08-20T03:41:34.356Z,22.63
2022-08-20T03:44:07.152Z,22.65
2022-08-20T03:46:39.668Z,22.67
2022-08-20T03:49:11.326Z,22.68
2022-08-20T03:51:56.162Z,22.69
2022-08-20T03:54:31.911Z,22.71
2022-08-20T03:57:12.735Z,22.73
2022-08-20T03:59:45.683Z,22.77
2022-08-20T04:02:21.684Z,22.80
2022-08-20T04:04:55.112Z,22.83
2022-08-20T04:07:27.932Z,22.87
2022-08-20T04:10:00.098Z,22.90
2022-08-20T04:12:32.551Z,22.86
2022-08-20T04:15:09.628Z,22.84
2022-08-20T04:17:44.109Z,22.80
2022-08-20T04:20:23.133Z,22.75
2022-08-20T04:22:59.333Z,22.76
2022-08-20T04:25:35.818Z,22.81
2022-08-20T04:28:14.240Z,22.84
2022-08-20T04:30:51.908Z,22.88
2022-08-20T04:33:33.687Z,22.89
2022-08-20T04:36:07.759Z,22.89
2022-08-20T04:38:48.069Z,22.87
2022-08-20T04:41:24.252Z,22.88
2022-08-20T04:43:57.161Z,22.86
2022-08-20T04:46:32.778Z,22.87
2022-08-20T04:49:04.736Z,22.88
2022-08-20T04:51:37.154Z,22.92
2022-08-20T04:54:08.846Z,22.98
2022-08-20T04:56:40.586Z,23.03
2022-08-20T04:59:12.323Z,23.07
2022-08-20T05:01:44.039Z,23.12
2022-08-20T05:04:15.787Z,23.17
2022-08-20T05:06:49.609Z,23.22
2022-08-20T05:09:21.170Z,23.25
2022-08-20T05:11:52.801Z,23.24
2022-08-20T05:14:24.470Z,23.23
2022-08-20T05:16:57.627Z,23.23
2022-08-20T05:19:29.290Z,23.21
2022-08-20T05:22:01.649Z,23.17
2022-08-20T05:24:33.429Z,23.18
2022-08-20T05:27:05.307Z,23.20
2022-08-20T05:29:37.103Z,23.18
2022-08-20T05:32:09.343Z,23.16
2022-08-20T05:34:41.091Z,23.16
2022-08-20T05:37:12.681Z,23.17
2022-08-20T05:39:44.315Z,23.20
2022-08-20T05:42:16.015Z,23.22
2022-08-20T05:44:47.798Z,23.24
2022-08-20T05:47:19.356Z,23.27
2022-08-20T05:49:53.462Z,23.32
2022-08-20T05:52:25.413Z,23.40
2022-08-20T05:54:57.065Z,23.44
2022-08-20T05:57:28.723Z,23.49
2022-08-20T06:00:07.606Z,23.53
2022-08-20T06:02:57.276Z,23.71
2022-08-20T06:05:29.283Z,23.95
2022-08-20T06:08:07.792Z,24.03
2022-08-20T06:10:42.666Z,24.11
2022-08-20T06:13:15.089Z,24.19
2022-08-20T06:15:46.767Z,24.29
2022-08-20T06:18:27.587Z,24.35
2022-08-20T06:21:00.563Z,24.39
2022-08-20T06:23:45.538Z,24.43
2022-08-20T06:26:28.948Z,24.44
2022-08-20T06:29:02.789Z,24.43
2022-08-20T06:31:35.116Z,24.38
2022-08-20T06:34:07.482Z,24.42
2022-08-20T06:36:39.156Z,24.51
2022-08-20T06:39:10.758Z,24.55
2022-08-20T06:41:42.738Z,24.63
2022-08-20T06:44:15.277Z,24.73
2022-08-20T06:46:47.119Z,24.82
2022-08-20T06:49:19.025Z,24.94
2022-08-20T06:51:51.997Z,25.03
2022-08-20T06:54:28.600Z,25.13
2022-08-20T06:57:01.205Z,25.25
2022-08-20T06:59:33.078Z,25.45
2022-08-20T07:02:05.931Z,25.64
2022-08-20T07:04:37.776Z,25.78
2022-08-20T07:07:16.367Z,25.77
2022-08-20T07:09:48.081Z,25.78
2022-08-20T07:12:19.770Z,25.80
2022-08-20T07:14:51.553Z,25.79
2022-08-20T07:17:24.241Z,25.68
2022-08-20T07:19:56.189Z,25.57
2022-08-20T07:22:27.881Z,25.57
2022-08-20T07:24:59.538Z,25.60
2022-08-20T07:27:31.246Z,25.61
2022-08-20T07:30:21.192Z,25.66
2022-08-20T07:32:52.882Z,25.66
2022-08-20T07:35:25.109Z,25.53
2022-08-20T07:37:56.966Z,25.45
2022-08-20T07:40:31.177Z,25.47
2022-08-20T07:43:04.835Z,25.59
2022-08-20T07:45:36.512Z,25.74
2022-08-20T07:48:13.778Z,25.86
2022-08-20T07:51:04.843Z,26.14
2022-08-20T07:53:38.957Z,26.38
2022-08-20T07:56:13.035Z,26.56
2022-08-20T07:58:50.450Z,26.68
2022-08-20T08:01:26.672Z,26.80
2022-08-20T08:03:59.181Z,27.00
2022-08-20T08:06:32.674Z,27.02
2022-08-20T08:09:07.871Z,26.82
2022-08-20T08:11:46.968Z,26.74
2022-08-20T08:14:23.590Z,26.80
2022-08-20T08:16:57.442Z,27.01
2022-08-20T08:19:34.412Z,27.22
2022-08-20T08:22:06.416Z,27.42
2022-08-20T08:24:38.210Z,27.58
2022-08-20T08:27:10.151Z,27.74
2022-08-20T08:29:43.381Z,27.90
2022-08-20T08:32:15.105Z,28.01
2022-08-20T08:34:48.236Z,28.01
2022-08-20T08:37:19.934Z,27.97
2022-08-20T08:39:51.646Z,27.97
2022-08-20T08:42:29.546Z,27.90
2022-08-20T08:45:04.456Z,27.84
2022-08-20T08:47:41.357Z,27.89
2022-08-20T08:50:38.559Z,27.90
2022-08-20T08:53:23.531Z,27.84
2022-08-20T08:55:55.347Z,27.87
2022-08-20T08:58:28.075Z,27.92
2022-08-20T09:01:02.088Z,27.94
2022-08-20T09:03:43.357Z,28.05
2022-08-20T09:06:20.579Z,28.24
2022-08-20T09:08:55.498Z,28.42
2022-08-20T09:11:29.386Z,28.66
2022-08-20T09:14:01.766Z,28.98
2022-08-20T09:16:52.283Z,29.19
2022-08-20T09:19:23.676Z,29.41
2022-08-20T09:21:53.831Z,29.53
2022-08-20T09:24:26.193Z,29.40
2022-08-20T09:26:57.951Z,29.28
2022-08-20T09:29:30.406Z,29.03
2022-08-20T09:32:09.333Z,29.02
2022-08-20T09:34:43.974Z,29.00
2022-08-20T09:37:16.417Z,28.82
2022-08-20T09:39:48.362Z,28.79
2022-08-20T09:42:23.042Z,28.85
2022-08-20T09:44:55.124Z,28.82
2022-08-20T09:47:27.764Z,28.69
2022-08-20T09:49:59.537Z,28.77
2022-08-20T09:52:40.177Z,29.00
2022-08-20T09:55:21.290Z,29.17
2022-08-20T09:57:53.961Z,29.30
2022-08-20T10:00:25.755Z,29.43
2022-08-20T10:02:57.415Z,29.55
2022-08-20T10:05:29.214Z,29.59
2022-08-20T10:08:01.887Z,29.51
2022-08-20T10:10:33.605Z,29.29
2022-08-20T10:13:05.440Z,29.08
2022-08-20T10:15:37.019Z,28.93
2022-08-20T10:18:08.977Z,28.83
2022-08-20T10:20:44.537Z,28.74
2022-08-20T10:23:16.220Z,28.57
2022-08-20T10:25:47.847Z,28.38
2022-08-20T10:28:19.654Z,28.31
2022-08-20T10:30:51.281Z,28.25
2022-08-20T10:33:22.963Z,28.17
2022-08-20T10:35:59.765Z,28.07
2022-08-20T10:38:31.803Z,27.89
2022-08-20T10:41:03.459Z,27.79
2022-08-20T10:43:35.235Z,27.71
2022-08-20T10:46:07.197Z,27.74
2022-08-20T10:48:38.964Z,27.84
2022-08-20T10:51:10.666Z,28.03
2022-08-20T10:53:43.403Z,28.27
2022-08-20T10:56:15.778Z,28.60
2022-08-20T10:58:47.548Z,28.80
2022-08-20T11:01:31.624Z,28.79
2022-08-20T11:04:05.284Z,28.73
2022-08-20T11:06:36.836Z,28.65
2022-08-20T11:09:09.740Z,28.51
2022-08-20T11:11:41.540Z,28.37
2022-08-20T11:14:13.321Z,28.38
2022-08-20T11:16:44.953Z,28.49
2022-08-20T11:19:16.650Z,28.63
2022-08-20T11:21:48.357Z,28.63
2022-08-20T11:24:20.104Z,28.51
2022-08-20T11:26:53.741Z,28.55
2022-08-20T11:29:25.406Z,28.68
2022-08-20T11:31:57.119Z,28.92
2022-08-20T11:34:28.846Z,29.08
2022-08-20T11:37:00.870Z,29.08
2022-08-20T11:39:32.705Z,29.11
2022-08-20T11:42:04.506Z,29.12
2022-08-20T11:44:36.770Z,29.16
2022-08-20T11:47:21.756Z,29.17
2022-08-20T11:50:00.018Z,29.10
2022-08-20T11:52:31.900Z,29.21
2022-08-20T11:55:03.951Z,29.20
2022-08-20T11:57:38.235Z,29.15
2022-08-20T12:00:16.150Z,29.10
2022-08-20T12:02:47.779Z,29.01
2022-08-20T12:05:20.231Z,28.81
2022-08-20T12:07:52.005Z,28.71
2022-08-20T12:10:26.432Z,28.56
2022-08-20T12:12:58.549Z,28.41
2022-08-20T12:15:30.569Z,28.45
2022-08-20T12:18:02.380Z,28.50
2022-08-20T12:20:34.139Z,28.49
2022-08-20T12:23:06.344Z,28.38
2022-08-20T12:25:38.118Z,28.31
2022-08-20T12:28:13.172Z,28.22
2022-08-20T12:30:45.122Z,28.08
2022-08-20T12:33:16.745Z,27.95
2022-08-20T12:35:48.425Z,27.87
2022-08-20T12:38:20.217Z,27.77
2022-08-20T12:40:52.010Z,27.64
2022-08-20T12:43:25.232Z,27.53
2022-08-20T12:45:57.183Z,27.43
2022-08-20T12:48:28.861Z,27.30
2022-08-20T12:51:00.622Z,27.16
2022-08-20T12:53:32.395Z,27.00
2022-08-20T12:56:09.943Z,26.79
2022-08-20T12:58:41.530Z,26.56
2022-08-20T13:01:13.641Z,26.32
2022-08-20T13:03:45.416Z,26.16
2022-08-20T13:06:17.107Z,26.03
2022-08-20T13:08:48.733Z,25.90
2022-08-20T13:11:20.408Z,25.67
2022-08-20T13:13:52.224Z,25.50
2022-08-20T13:16:23.949Z,25.38
2022-08-20T13:18:55.580Z,25.35
2022-08-20T13:21:27.567Z,25.38
2022-08-20T13:23:59.246Z,25.42
2022-08-20T13:26:30.870Z,25.43
2022-08-20T13:29:02.552Z,25.39
2022-08-20T13:31:34.240Z,25.28
2022-08-20T13:34:06.076Z,25.20
2022-08-20T13:36:38.163Z,25.02
2022-08-20T13:39:09.964Z,24.83
2022-08-20T13:41:41.994Z,24.70
2022-08-20T13:44:13.526Z,24.64
2022-08-20T13:46:45.221Z,24.64
2022-08-20T13:49:16.841Z,24.69
2022-08-20T13:51:48.599Z,24.71
2022-08-20T13:54:27.142Z,24.63
2022-08-20T13:57:10.824Z,24.46
2022-08-20T13:59:42.344Z,24.42
2022-08-20T14:02:15.104Z,24.44
2022-08-20T14:04:47.997Z,24.47
2022-08-20T14:07:23.345Z,24.46
2022-08-20T14:09:58.270Z,24.39
2022-08-20T14:12:31.003Z,24.33
2022-08-20T14:15:02.755Z,24.28
2022-08-20T14:17:37.023Z,24.20
2022-08-20T14:20:12.501Z,24.13
2022-08-20T14:22:48.180Z,24.04
2022-08-20T14:25:22.972Z,23.96
2022-08-20T14:27:55.736Z,23.87
2022-08-20T14:30:29.849Z,23.80
2022-08-20T14:33:01.458Z,23.74
2022-08-20T14:35:33.235Z,23.70
2022-08-20T14:38:07.613Z,23.61
2022-08-20T14:40:39.311Z,23.55
2022-08-20T14:43:11.140Z,23.54
2022-08-20T14:45:42.784Z,23.43
2022-08-20T14:48:15.547Z,23.34
2022-08-20T14:50:47.382Z,23.27
2022-08-20T14:53:19.570Z,23.22
2022-08-20T14:55:51.293Z,23.19
2022-08-20T14:58:23.328Z,23.13
2022-08-20T15:00:56.847Z,23.04
2022-08-20T15:03:30.675Z,22.96
2022-08-20T15:06:02.525Z,22.90
2022-08-20T15:08:34.188Z,22.84
2022-08-20T15:11:07.556Z,22.79
2022-08-20T15:13:39.225Z,22.78
2022-08-20T15:16:11.139Z,22.74
2022-08-20T15:18:43.555Z,22.70
2022-08-20T15:21:19.051Z,22.68
2022-08-20T15:23:53.797Z,22.68
2022-08-20T15:26:25.669Z,22.66
2022-08-20T15:28:57.887Z,22.60
2022-08-20T15:31:29.817Z,22.57
2022-08-20T15:34:01.781Z,22.55
2022-08-20T15:36:34.108Z,22.52
2022-08-20T15:39:05.914Z,22.51
2022-08-20T15:41:37.636Z,22.45
2022-08-20T15:44:09.411Z,22.37
2022-08-20T15:46:41.117Z,22.35
2022-08-20T15:49:14.404Z,22.33
2022-08-20T15:51:48.616Z,22.29
2022-08-20T15:54:24.163Z,22.29
2022-08-20T15:57:03.165Z,22.29
2022-08-20T15:59:53.495Z,22.19
2022-08-20T16:02:47.549Z,22.12
2022-08-20T16:05:26.046Z,22.09
2022-08-20T16:08:12.700Z,22.07
2022-08-20T16:10:53.822Z,22.07
2022-08-20T16:13:37.180Z,22.08
2022-08-20T16:16:12.601Z,22.08
2022-08-20T16:18:45.745Z,22.06
2022-08-20T16:21:27.900Z,22.02
2022-08-20T16:23:59.903Z,22.04
2022-08-20T16:26:46.031Z,22.01
2022-08-20T16:29:25.848Z,21.95
2022-08-20T16:32:02.109Z,21.88
2022-08-20T16:34:38.597Z,21.81
2022-08-20T16:37:23.135Z,21.71
2022-08-20T16:40:00.406Z,21.67
2022-08-20T16:42:38.514Z,21.69
2022-08-20T16:45:18.070Z,21.73
2022-08-20T16:47:51.162Z,21.71
2022-08-20T16:50:27.741Z,21.71
2022-08-20T16:52:59.595Z,21.66
2022-08-20T16:55:31.310Z,21.65
2022-08-20T16:58:04.358Z,21.63
2022-08-20T17:00:44.950Z,21.58
2022-08-20T17:03:38.706Z,21.51
2022-08-20T17:06:30.726Z,21.45
2022-08-20T17:09:06.313Z,21.37
2022-08-20T17:11:40.614Z,21.32
2022-08-20T17:14:15.239Z,21.31
2022-08-20T17:16:49.020Z,21.32
2022-08-20T17:19:29.801Z,21.31
2022-08-20T17:22:11.623Z,21.31
2022-08-20T17:24:43.691Z,21.29
2022-08-20T17:27:28.123Z,21.24
2022-08-20T17:30:11.794Z,21.17
2022-08-20T17:32:58.889Z,21.10
2022-08-20T17:35:34.609Z,21.07
2022-08-20T17:38:07.036Z,21.04
2022-08-20T17:40:46.213Z,21.01
2022-08-20T17:43:29.182Z,20.99
2022-08-20T17:46:04.380Z,20.98
2022-08-20T17:48:42.636Z,20.97
2022-08-20T17:51:19.085Z,20.96
2022-08-20T17:53:54.396Z,20.96
2022-08-20T17:56:32.696Z,20.95
2022-08-20T17:59:10.357Z,20.98
2022-08-20T18:01:42.526Z,21.01
2022-08-20T18:04:14.544Z,21.01
2022-08-20T18:06:53.510Z,20.99
2022-08-20T18:09:33.534Z,20.98
2022-08-20T18:12:18.453Z,20.99
2022-08-20T18:15:12.716Z,21.00
2022-08-20T18:18:17.640Z,21.03
2022-08-20T18:21:07.044Z,21.09
2022-08-20T18:23:42.725Z,21.13
2022-08-20T18:26:28.008Z,21.21
2022-08-20T18:29:04.722Z,21.16
2022-08-20T18:31:45.310Z,21.11
2022-08-20T18:34:17.044Z,21.08
2022-08-20T18:37:00.521Z,21.07
2022-08-20T18:39:38.630Z,21.04
2022-08-20T18:42:24.116Z,21.00
2022-08-20T18:44:57.522Z,20.96
2022-08-20T18:47:41.644Z,20.95
2022-08-20T18:50:26.162Z,20.99
2022-08-20T18:53:11.057Z,20.99
2022-08-20T18:55:46.281Z,20.96
2022-08-20T18:58:33.226Z,20.93
2022-08-20T19:01:12.867Z,20.90
2022-08-20T19:03:49.932Z,20.84
2022-08-20T19:06:34.766Z,20.85
2022-08-20T19:09:14.884Z,20.84
2022-08-20T19:12:01.948Z,20.83
2022-08-20T19:14:57.758Z,20.80
2022-08-20T19:17:50.119Z,20.76
2022-08-20T19:20:25.857Z,20.78
2022-08-20T19:23:06.088Z,20.74
2022-08-20T19:25:41.611Z,20.74
2022-08-20T19:28:24.263Z,20.71
2022-08-20T19:30:56.190Z,20.70
2022-08-20T19:33:44.121Z,20.70
2022-08-20T19:36:20.197Z,20.65
2022-08-20T19:38:56.918Z,20.58
2022-08-20T19:41:33.708Z,20.54
2022-08-20T19:44:05.719Z,20.52
2022-08-20T19:46:43.833Z,20.49
2022-08-20T19:49:25.167Z,20.46
2022-08-20T19:52:09.381Z,20.42
2022-08-20T19:54:49.629Z,20.39
2022-08-20T19:57:23.116Z,20.36
2022-08-20T20:00:00.095Z,20.35
2022-08-20T20:02:34.113Z,20.36
2022-08-20T20:05:10.113Z,20.36
2022-08-20T20:07:45.468Z,20.34
2022-08-20T20:10:32.462Z,20.37
2022-08-20T20:13:11.411Z,20.39
2022-08-20T20:15:44.129Z,20.36
2022-08-20T20:18:16.383Z,20.34
2022-08-20T20:20:57.317Z,20.36
2022-08-20T20:23:45.556Z,20.31
2022-08-20T20:26:21.096Z,20.28
2022-08-20T20:28:54.747Z,20.27
2022-08-20T20:31:29.627Z,20.21
2022-08-20T20:34:08.532Z,20.17
2022-08-20T20:36:42.863Z,20.16
2022-08-20T20:39:30.339Z,20.13
2022-08-20T20:42:04.427Z,20.07
2022-08-20T20:44:38.935Z,20.03
2022-08-20T20:47:19.428Z,19.99
2022-08-20T20:49:53.732Z,19.96
2022-08-20T20:52:29.136Z,19.93
2022-08-20T20:55:22.624Z,19.92
2022-08-20T20:57:55.618Z,19.89
2022-08-20T21:00:29.853Z,19.83
2022-08-20T21:03:02.863Z,19.78
2022-08-20T21:05:36.071Z,19.82
2022-08-20T21:08:11.474Z,19.80
2022-08-20T21:10:44.539Z,19.77
2022-08-20T21:13:17.289Z,19.74
2022-08-20T21:15:49.269Z,19.74
2022-08-20T21:18:25.756Z,19.71
2022-08-20T21:20:58.491Z,19.67
2022-08-20T21:23:40.184Z,19.65
2022-08-20T21:26:14.770Z,19.62
2022-08-20T21:28:46.798Z,19.62
2022-08-20T21:31:18.734Z,19.57
2022-08-20T21:33:50.649Z,19.51
2022-08-20T21:36:22.780Z,19.47
2022-08-20T21:38:54.650Z,19.48
2022-08-20T21:41:30.278Z,19.47
2022-08-20T21:44:04.823Z,19.42
2022-08-20T21:46:36.778Z,19.41
2022-08-20T21:49:08.727Z,19.35
2022-08-20T21:51:40.556Z,19.30
2022-08-20T21:54:12.541Z,19.29
2022-08-20T21:56:46.653Z,19.28
2022-08-20T21:59:20.917Z,19.26
2022-08-20T22:01:53.311Z,19.22
2022-08-20T22:04:25.432Z,19.19
2022-08-20T22:06:57.679Z,19.19
2022-08-20T22:09:29.492Z,19.24
2022-08-20T22:12:02.314Z,19.27
2022-08-20T22:14:34.422Z,19.23
2022-08-20T22:17:06.314Z,19.23
2022-08-20T22:19:38.026Z,19.21
2022-08-20T22:22:11.421Z,19.22
2022-08-20T22:24:43.378Z,19.27
2022-08-20T22:27:16.267Z,19.26
2022-08-20T22:29:48.063Z,19.26
2022-08-20T22:32:20.213Z,19.24
2022-08-20T22:35:05.508Z,19.26
2022-08-20T22:37:37.207Z,19.27
2022-08-20T22:40:16.191Z,19.27
2022-08-20T22:42:47.945Z,19.29
2022-08-20T22:45:20.421Z,19.30
2022-08-20T22:47:52.184Z,19.34
2022-08-20T22:50:26.134Z,19.32
2022-08-20T22:52:58.140Z,19.27
2022-08-20T22:55:30.023Z,19.30
2022-08-20T22:58:02.054Z,19.31
2022-08-20T23:00:34.224Z,19.30
2022-08-20T23:03:07.149Z,19.29
2022-08-20T23:05:39.622Z,19.33
2022-08-20T23:08:11.636Z,19.33
2022-08-20T23:10:44.084Z,19.31
2022-08-20T23:13:15.855Z,19.30
2022-08-20T23:15:47.763Z,19.30
2022-08-20T23:18:21.587Z,19.37
2022-08-20T23:20:57.432Z,19.40
2022-08-20T23:23:29.599Z,19.43
2022-08-20T23:26:01.653Z,19.43
2022-08-20T23:28:33.454Z,19.41
2022-08-20T23:31:05.073Z,19.42
2022-08-20T23:33:36.729Z,19.46
2022-08-20T23:36:11.695Z,19.49
2022-08-20T23:38:43.625Z,19.50
2022-08-20T23:41:15.387Z,19.48
2022-08-20T23:43:46.963Z,19.45
2022-08-20T23:46:19.305Z,19.47
2022-08-20T23:48:52.435Z,19.46
2022-08-20T23:51:24.381Z,19.43
2022-08-20T23:53:56.290Z,19.39
2022-08-20T23:56:28.662Z,19.36
2022-08-20T23:59:00.494Z,19.34
